Time;durP1;ratioP1;P1;durP2;ratioP2;P2;SDS_P1;SDS_P2;PMS_P1;PMS_P2;Temp;Humidity;BMP_temperature;BMP_pressure;BME280_temperature;BME280_humidity;BME280_pressure;Samples;Min_cycle;Max_cycle;Signal;HPM_P1;HPM_P2
2023/03/28 00:01:01;;;;;;;4.95;2.58;;;;;;;1.90;53.40;98721.16;4249890;33;33622;-86
2023/03/28 00:03:34;;;;;;;6.80;3.28;;;;;;;1.75;53.62;98728.22;4259498;33;34809;-84
2023/03/28 00:06:04;;;;;;;8.13;2.67;;;;;;;1.92;53.87;98732.28;4269469;33;34303;-83
2023/03/28 00:08:32;;;;;;;7.57;2.75;;;;;;;1.97;52.97;98735.06;4254077;33;33710;-85
2023/03/28 00:11:05;;;;;;;4.93;2.40;;;;;;;1.80;54.01;98736.91;4268327;33;33947;-84
2023/03/28 00:13:33;;;;;;;5.78;2.60;;;;;;;1.85;54.06;98735.41;4267975;33;34139;-83
2023/03/28 00:16:04;;;;;;;4.90;2.37;;;;;;;2.14;53.27;98738.25;4252907;33;34524;-84
2023/03/28 00:18:36;;;;;;;5.25;2.70;;;;;;;2.19;53.02;98745.28;4269810;33;33061;-85
2023/03/28 00:21:06;;;;;;;4.70;2.40;;;;;;;2.00;53.59;98734.28;4256947;33;33943;-83
2023/03/28 00:23:34;;;;;;;6.95;2.70;;;;;;;2.44;52.85;98746.25;4252775;33;33721;-85
2023/03/28 00:26:06;;;;;;;5.40;2.60;;;;;;;1.88;54.21;98744.91;4255289;33;33101;-84
2023/03/28 00:28:34;;;;;;;5.40;3.03;;;;;;;2.00;53.42;98763.28;4269858;33;31842;-85
2023/03/28 00:31:06;;;;;;;6.07;2.90;;;;;;;2.01;54.02;98747.16;4253563;33;33076;-85
2023/03/28 00:33:33;;;;;;;5.37;2.62;;;;;;;2.10;54.17;98761.97;4240241;33;34283;-85
2023/03/28 00:36:01;;;;;;;4.60;2.22;;;;;;;2.06;53.69;98762.66;4261166;33;34505;-84
2023/03/28 00:38:30;;;;;;;5.07;2.60;;;;;;;2.19;53.33;98764.88;4270511;33;34286;-85
2023/03/28 00:40:58;;;;;;;5.10;2.28;;;;;;;1.99;54.55;98773.44;4254089;33;34049;-84
2023/03/28 00:43:36;;;;;;;4.85;2.47;;;;;;;1.95;54.26;98778.44;4261188;33;34037;-84
2023/03/28 00:46:08;;;;;;;5.62;2.42;;;;;;;1.87;54.95;98784.06;4249415;33;34425;-84
2023/03/28 00:48:38;;;;;;;4.50;2.53;;;;;;;1.94;54.10;98792.03;4266664;33;32967;-83
2023/03/28 00:51:07;;;;;;;4.22;2.42;;;;;;;2.11;53.09;98789.28;4250104;33;33660;-83
2023/03/28 00:53:35;;;;;;;5.60;2.65;;;;;;;2.38;53.10;98795.47;4256971;33;34159;-85
2023/03/28 00:56:07;;;;;;;5.37;2.37;;;;;;;2.54;52.86;98802.09;4257843;33;34133;-84
2023/03/28 00:58:41;;;;;;;5.93;2.40;;;;;;;2.44;53.19;98811.06;4258643;33;32798;-84
2023/03/28 01:01:14;;;;;;;5.87;3.12;;;;;;;2.53;52.32;98809.69;4254007;33;33482;-85
2023/03/28 01:03:45;;;;;;;5.07;2.80;;;;;;;1.82;54.36;98817.09;4254529;33;34153;-85
2023/03/28 01:06:14;;;;;;;5.25;2.78;;;;;;;1.83;54.33;98816.28;4265176;33;33437;-85
2023/03/28 01:08:45;;;;;;;4.87;2.30;;;;;;;1.87;54.65;98814.72;4258755;33;34054;-84
2023/03/28 01:11:15;;;;;;;6.10;2.70;;;;;;;2.08;54.56;98812.16;4258393;33;33556;-84
2023/03/28 01:13:47;;;;;;;7.32;2.87;;;;;;;1.87;55.06;98823.28;4255002;33;35605;-85
2023/03/28 01:16:16;;;;;;;7.90;2.55;;;;;;;1.72;55.93;98840.53;4244784;33;33240;-84
2023/03/28 01:18:51;;;;;;;5.82;2.53;;;;;;;1.85;55.63;98829.13;4244768;33;33463;-84
2023/03/28 01:21:47;;;;;;;5.65;2.83;;;;;;;2.00;55.42;98831.44;4248573;33;34619;-84
2023/03/28 01:24:24;;;;;;;5.47;2.70;;;;;;;1.70;56.30;98831.91;4262647;33;34223;-83
2023/03/28 01:27:03;;;;;;;7.70;3.55;;;;;;;2.17;55.35;98833.88;4262765;33;34058;-85
2023/03/28 01:29:40;;;;;;;5.37;2.45;;;;;;;1.76;56.64;98847.50;4270734;33;34249;-84
2023/03/28 01:32:47;;;;;;;7.32;3.05;;;;;;;2.01;55.84;98848.50;4253317;33;33082;-83
2023/03/28 01:36:07;;;;;;;6.32;2.92;;;;;;;1.98;55.85;98849.28;4265974;33;35122;-84
2023/03/28 01:38:53;;;;;;;6.45;2.50;;;;;;;2.14;55.77;98845.66;4228753;33;33835;-84
2023/03/28 01:41:38;;;;;;;5.93;2.70;;;;;;;2.24;55.65;98855.47;4267625;33;33358;-84
2023/03/28 01:44:27;;;;;;;6.03;2.33;;;;;;;2.25;56.28;98869.12;4245634;33;33240;-85
2023/03/28 01:47:02;;;;;;;5.30;2.78;;;;;;;2.25;56.18;98864.87;4265674;33;35096;-85
2023/03/28 01:49:38;;;;;;;;;;;;;;;2.18;56.82;98873.09;4258493;33;34465;-84
2023/03/28 01:52:22;;;;;;;5.72;2.87;;;;;;;2.24;57.02;98878.47;4250021;33;32882;-83
2023/03/28 01:55:15;;;;;;;5.82;2.95;;;;;;;1.93;57.57;98884.88;4251478;33;34796;-85
2023/03/28 01:58:06;;;;;;;4.87;2.85;;;;;;;1.82;57.97;98885.22;4263215;33;34084;-85
2023/03/28 02:00:55;;;;;;;4.82;2.60;;;;;;;1.87;58.11;98886.31;4255312;33;33621;-85
2023/03/28 02:03:28;;;;;;;6.03;3.10;;;;;;;2.48;56.93;98886.25;4257517;33;33093;-85
2023/03/28 02:05:56;;;;;;;7.20;3.30;;;;;;;2.67;56.17;98885.31;4243317;33;33958;-85
2023/03/28 02:08:27;;;;;;;6.72;2.95;;;;;;;1.84;58.33;98899.81;4255363;33;34326;-85
2023/03/28 02:11:00;;;;;;;5.32;2.75;;;;;;;1.73;59.23;98897.59;4250766;33;33819;-86
2023/03/28 02:13:32;;;;;;;5.45;2.87;;;;;;;2.00;58.99;98909.00;4254375;33;33388;-86
2023/03/28 02:16:02;;;;;;;7.30;3.30;;;;;;;1.89;59.22;98906.00;4245894;33;34619;-86
2023/03/28 02:18:33;;;;;;;6.12;3.00;;;;;;;1.52;60.42;98916.31;4254433;33;33806;-85
2023/03/28 02:21:09;;;;;;;5.45;3.08;;;;;;;1.70;60.17;98914.56;4248933;33;32824;-86
2023/03/28 02:23:47;;;;;;;5.87;2.95;;;;;;;1.70;60.56;98919.69;4249804;33;34453;-87
2023/03/28 02:26:16;;;;;;;10.70;3.10;;;;;;;1.46;61.53;98916.91;4254178;33;34734;-84
2023/03/28 02:28:45;;;;;;;5.97;3.15;;;;;;;1.48;61.30;98918.66;4259151;33;33857;-85
2023/03/28 02:31:13;;;;;;;9.23;3.80;;;;;;;2.00;60.87;98926.03;4265060;33;33566;-86
2023/03/28 02:33:43;;;;;;;5.62;2.87;;;;;;;1.54;61.80;98922.34;4258389;33;33580;-86
2023/03/28 02:36:20;;;;;;;7.53;3.95;;;;;;;1.64;61.94;98926.19;4270642;33;34563;-85
2023/03/28 02:39:06;;;;;;;7.37;3.45;;;;;;;1.84;61.95;98938.16;4263623;33;34210;-85
2023/03/28 02:41:54;;;;;;;8.13;3.75;;;;;;;1.70;61.97;98929.00;4266203;33;34381;-85
2023/03/28 02:44:40;;;;;;;8.55;4.25;;;;;;;1.99;60.97;98932.84;4261650;33;33544;-86
2023/03/28 02:47:14;;;;;;;7.80;3.75;;;;;;;1.31;63.50;98936.66;4260801;33;33760;-85
2023/03/28 02:50:03;;;;;;;7.57;3.72;;;;;;;1.52;62.98;98939.31;4263015;33;34180;-87
2023/03/28 02:52:50;;;;;;;7.57;4.00;;;;;;;1.21;63.84;98950.69;4266752;33;33903;-85
2023/03/28 02:55:28;;;;;;;8.55;4.30;;;;;;;1.21;64.24;98942.13;4252447;33;33116;-85
2023/03/28 02:58:20;;;;;;;7.12;4.65;;;;;;;1.41;63.82;98961.81;4267960;33;33651;-86
2023/03/28 03:00:47;;;;;;;10.65;4.35;;;;;;;1.19;64.47;98961.62;4266879;33;34188;-85
2023/03/28 03:03:16;;;;;;;8.35;4.15;;;;;;;1.29;64.81;98966.38;4267673;33;34679;-86
2023/03/28 03:05:44;;;;;;;7.20;4.72;;;;;;;1.27;65.08;98972.19;4262033;33;34087;-84
2023/03/28 03:08:12;;;;;;;8.40;5.20;;;;;;;1.32;64.69;98970.72;4263392;33;34664;-84
2023/03/28 03:10:40;;;;;;;6.97;4.75;;;;;;;1.51;64.38;98982.66;4253780;33;35366;-85
2023/03/28 03:13:07;;;;;;;9.07;4.57;;;;;;;1.28;65.19;98990.13;4246761;33;34690;-85
2023/03/28 03:15:35;;;;;;;8.30;4.68;;;;;;;1.54;64.30;98990.47;4264790;33;33855;-86
2023/03/28 03:18:03;;;;;;;9.32;4.12;;;;;;;1.27;65.15;99001.16;4264256;33;33853;-84
2023/03/28 03:20:33;;;;;;;11.52;5.10;;;;;;;1.54;64.62;99003.25;4267737;33;35092;-85
2023/03/28 03:23:02;;;;;;;9.27;4.78;;;;;;;1.64;64.21;99002.84;4262203;33;33920;-85
2023/03/28 03:25:30;;;;;;;11.32;5.10;;;;;;;1.97;62.84;99010.25;4260891;33;33252;-86
2023/03/28 03:27:58;;;;;;;8.70;5.00;;;;;;;1.77;63.16;99006.84;4252371;33;34630;-85
2023/03/28 03:30:26;;;;;;;8.32;5.12;;;;;;;1.84;63.34;99019.94;4253908;33;33902;-85
2023/03/28 03:32:55;;;;;;;9.77;4.72;;;;;;;1.76;63.49;99011.06;4250463;33;33721;-86
2023/03/28 03:35:23;;;;;;;12.02;5.18;;;;;;;1.51;64.01;99008.19;4264123;33;33466;-84
2023/03/28 03:37:51;;;;;;;7.68;4.55;;;;;;;1.73;63.50;99013.47;4272006;33;34614;-85
2023/03/28 03:40:18;;;;;;;7.55;4.57;;;;;;;1.63;63.96;99011.31;4270678;33;34119;-85
2023/03/28 03:42:47;;;;;;;9.30;4.97;;;;;;;1.77;63.34;99015.38;4267932;33;33718;-85
2023/03/28 03:45:14;;;;;;;9.02;4.72;;;;;;;1.45;64.89;99025.00;4269357;33;33677;-87
2023/03/28 03:47:42;;;;;;;10.02;5.25;;;;;;;1.78;63.14;99024.81;4254552;33;34704;-87
2023/03/28 03:50:10;;;;;;;9.02;5.70;;;;;;;1.43;64.67;99030.84;4261797;33;33851;-85
2023/03/28 03:52:38;;;;;;;9.73;5.37;;;;;;;1.74;63.27;99030.56;4268713;33;34438;-85
2023/03/28 03:55:07;;;;;;;9.52;5.35;;;;;;;1.76;63.40;99031.50;4265252;33;33407;-85
2023/03/28 03:57:36;;;;;;;8.80;5.55;;;;;;;1.29;64.80;99042.09;4249598;33;34019;-85
2023/03/28 04:00:10;;;;;;;8.50;4.80;;;;;;;1.54;64.32;99039.00;4266116;33;34010;-84
2023/03/28 04:02:46;;;;;;;7.15;4.85;;;;;;;1.61;63.58;99044.47;4267721;33;33820;-85
2023/03/28 04:05:14;;;;;;;8.70;5.20;;;;;;;1.84;63.07;99049.75;4252451;33;33154;-85
2023/03/28 04:07:42;;;;;;;11.80;5.28;;;;;;;1.69;63.48;99045.69;4268881;33;34802;-85
2023/03/28 04:10:11;;;;;;;8.98;5.22;;;;;;;1.64;63.87;99062.50;4246571;33;34973;-85
2023/03/28 04:12:39;;;;;;;10.18;5.75;;;;;;;2.23;62.23;99060.00;4266258;33;34144;-85
2023/03/28 04:15:07;;;;;;;8.20;5.10;;;;;;;2.20;62.24;99065.88;4254828;33;34107;-85
2023/03/28 04:17:40;;;;;;;10.93;5.53;;;;;;;1.60;63.35;99068.28;4251005;33;32085;-86
2023/03/28 04:20:12;;;;;;;11.85;5.85;;;;;;;1.62;63.56;99068.34;4268124;33;33765;-86
2023/03/28 04:22:44;;;;;;;7.68;4.70;;;;;;;1.58;63.88;99076.66;4259009;33;33841;-86
2023/03/28 04:25:16;;;;;;;11.80;5.95;;;;;;;1.62;63.31;99073.44;4249597;33;33225;-85
2023/03/28 04:27:47;;;;;;;7.28;4.40;;;;;;;1.57;63.64;99074.94;4265545;33;33605;-86
2023/03/28 04:30:16;;;;;;;15.50;5.53;;;;;;;1.53;63.53;99083.25;4266565;33;33837;-85
2023/03/28 04:32:52;;;;;;;11.18;5.55;;;;;;;1.68;63.26;99094.19;4256026;33;34403;-85
2023/03/28 04:35:22;;;;;;;10.25;5.78;;;;;;;1.97;62.03;99080.19;4262085;33;33403;-84
2023/03/28 04:37:50;;;;;;;9.23;4.87;;;;;;;1.76;62.99;99091.97;4254718;33;33705;-86
2023/03/28 04:40:20;;;;;;;10.52;5.45;;;;;;;1.86;62.37;99096.72;4269796;33;34891;-85
2023/03/28 04:42:48;;;;;;;7.65;4.82;;;;;;;1.33;64.35;99108.72;4256466;33;34561;-86
2023/03/28 04:45:17;;;;;;;7.45;5.03;;;;;;;1.57;63.42;99108.13;4260851;33;33849;-86
2023/03/28 04:47:46;;;;;;;9.23;5.12;;;;;;;2.18;61.83;99108.41;4267268;33;33858;-85
2023/03/28 04:50:15;;;;;;;11.12;5.30;;;;;;;1.87;62.43;99101.91;4271883;33;33896;-85
2023/03/28 04:52:42;;;;;;;10.73;5.40;;;;;;;1.99;61.71;99111.81;4255827;33;33887;-85
2023/03/28 04:55:10;;;;;;;8.35;5.60;;;;;;;2.01;62.30;99114.41;4261809;33;33122;-86
2023/03/28 04:57:39;;;;;;;13.62;6.03;;;;;;;1.74;62.57;99120.00;4258669;33;33127;-86
2023/03/28 05:00:15;;;;;;;8.32;4.75;;;;;;;2.01;61.85;99117.87;4270650;33;35102;-85
2023/03/28 05:02:54;;;;;;;9.75;5.37;;;;;;;2.36;60.80;99114.34;4255307;33;34438;-85
2023/03/28 05:05:22;;;;;;;9.43;4.93;;;;;;;2.42;60.35;99108.59;4262171;33;33359;-87
2023/03/28 05:07:51;;;;;;;8.23;5.12;;;;;;;2.71;58.44;99109.00;4273021;33;33559;-87
2023/03/28 05:10:18;;;;;;;9.75;4.68;;;;;;;2.24;59.69;99121.47;4273099;33;34162;-86
2023/03/28 05:12:46;;;;;;;9.90;4.80;;;;;;;3.10;57.40;99117.47;4268955;33;34757;-87
2023/03/28 05:15:15;;;;;;;9.13;4.87;;;;;;;2.62;58.19;99127.41;4255973;33;32908;-87
2023/03/28 05:17:50;;;;;;;7.93;4.82;;;;;;;2.67;58.18;99121.66;4246452;33;33339;-86
2023/03/28 05:20:18;;;;;;;8.55;5.30;;;;;;;3.02;57.62;99123.97;4258699;33;34120;-87
2023/03/28 05:22:46;;;;;;;7.45;4.62;;;;;;;3.17;57.05;99128.03;4266237;33;33691;-87
2023/03/28 05:25:14;;;;;;;10.68;5.40;;;;;;;3.43;56.08;99128.22;4258654;33;33223;-86
2023/03/28 05:27:42;;;;;;;10.23;5.25;;;;;;;3.39;55.84;99134.03;4246398;33;34816;-87
2023/03/28 05:30:10;;;;;;;8.88;4.85;;;;;;;3.37;56.16;99139.13;4262535;33;34214;-87
2023/03/28 05:32:38;;;;;;;10.05;5.30;;;;;;;3.29;56.09;99139.59;4254279;33;34294;-86
2023/03/28 05:35:10;;;;;;;9.27;4.72;;;;;;;3.62;55.15;99137.53;4246594;33;34279;-87
2023/03/28 05:37:37;;;;;;;7.57;5.28;;;;;;;3.65;54.93;99133.41;4266834;33;33584;-87
2023/03/28 05:40:10;;;;;;;8.60;4.55;;;;;;;3.09;55.90;99142.22;4259360;33;33769;-88
2023/03/28 05:42:39;;;;;;;7.10;4.72;;;;;;;2.75;57.26;99146.72;4257322;33;34204;-86
2023/03/28 05:45:10;;;;;;;7.78;4.45;;;;;;;2.29;58.42;99143.00;4269072;33;32703;-85
2023/03/28 05:47:38;;;;;;;8.40;4.97;;;;;;;2.34;58.48;99148.31;4258746;33;33540;-86
2023/03/28 05:50:06;;;;;;;10.32;4.50;;;;;;;2.19;58.84;99156.19;4254238;33;33972;-86
2023/03/28 05:52:34;;;;;;;9.13;4.90;;;;;;;2.21;59.20;99162.25;4252359;33;32811;-85
2023/03/28 05:55:05;;;;;;;9.38;4.78;;;;;;;2.58;57.45;99156.22;4272804;33;33037;-85
2023/03/28 05:57:33;;;;;;;8.95;4.72;;;;;;;2.57;57.27;99163.00;4249426;33;33128;-85
2023/03/28 06:00:09;;;;;;;7.87;4.65;;;;;;;2.86;57.02;99169.41;4251878;33;33617;-85
2023/03/28 06:02:44;;;;;;;10.05;5.15;;;;;;;3.03;56.83;99171.81;4272176;33;34139;-85
2023/03/28 06:05:13;;;;;;;11.45;5.22;;;;;;;2.75;57.68;99160.38;4259935;33;33015;-85
2023/03/28 06:07:41;;;;;;;8.93;5.55;;;;;;;3.46;55.69;99171.06;4272664;33;33968;-85
2023/03/28 06:10:12;;;;;;;9.20;5.10;;;;;;;3.34;55.97;99174.00;4272410;33;34315;-85
2023/03/28 06:12:40;;;;;;;7.35;4.85;;;;;;;3.03;57.01;99182.03;4258235;33;33974;-84
2023/03/28 06:15:09;;;;;;;8.77;5.37;;;;;;;3.51;56.04;99187.47;4272321;33;34360;-85
2023/03/28 06:17:37;;;;;;;7.85;5.07;;;;;;;3.19;56.69;99186.16;4272340;33;34657;-85
2023/03/28 06:20:08;;;;;;;8.20;5.82;;;;;;;3.05;56.89;99193.25;4272623;33;34079;-85
2023/03/28 06:22:37;;;;;;;12.18;6.47;;;;;;;2.90;57.60;99193.47;4272142;33;34618;-85
2023/03/28 06:25:05;;;;;;;8.23;5.78;;;;;;;3.48;56.81;99203.59;4272408;33;33350;-86
2023/03/28 06:27:33;;;;;;;10.57;5.40;;;;;;;3.34;56.88;99210.72;4259139;33;34591;-84
2023/03/28 06:30:03;;;;;;;12.20;4.93;;;;;;;3.26;56.91;99206.97;4259498;33;34197;-85
2023/03/28 06:32:31;;;;;;;7.97;5.28;;;;;;;3.44;55.94;99217.09;4254198;33;33611;-86
2023/03/28 06:34:59;;;;;;;9.38;5.03;;;;;;;3.45;56.54;99217.97;4258770;33;33185;-85
2023/03/28 06:37:27;;;;;;;10.38;5.62;;;;;;;3.64;56.93;99223.94;4258092;33;33616;-85
2023/03/28 06:39:55;;;;;;;10.68;5.40;;;;;;;3.75;56.40;99229.53;4259950;33;33820;-85
2023/03/28 06:42:23;;;;;;;7.97;5.57;;;;;;;3.69;56.21;99236.94;4272267;33;33690;-86
2023/03/28 06:44:52;;;;;;;9.77;5.75;;;;;;;3.56;56.72;99242.38;4272097;33;33078;-85
2023/03/28 06:47:22;;;;;;;6.78;4.60;;;;;;;3.95;54.97;99238.00;4272195;33;34695;-85
2023/03/28 06:49:50;;;;;;;8.30;4.93;;;;;;;3.85;55.02;99241.00;4271740;33;34937;-85
2023/03/28 06:52:18;;;;;;;7.85;5.03;;;;;;;3.69;55.89;99241.19;4262557;33;34320;-85
2023/03/28 06:54:46;;;;;;;8.75;4.72;;;;;;;3.74;55.93;99244.81;4258215;33;33798;-86
2023/03/28 06:57:15;;;;;;;7.60;4.57;;;;;;;3.98;55.70;99253.53;4258062;33;34640;-86
2023/03/28 06:59:43;;;;;;;6.97;4.80;;;;;;;3.57;56.39;99239.87;4246101;33;34214;-85
2023/03/28 07:02:12;;;;;;;8.20;4.93;;;;;;;3.62;56.28;99247.75;4242901;33;33283;-86
2023/03/28 07:04:40;;;;;;;7.30;4.30;;;;;;;3.59;56.53;99255.31;4265901;33;34454;-86
2023/03/28 07:07:08;;;;;;;7.47;4.37;;;;;;;3.66;55.30;99234.25;4270483;33;34719;-84
2023/03/28 07:09:36;;;;;;;7.05;4.35;;;;;;;4.05;54.40;99249.50;4246098;33;33956;-85
2023/03/28 07:12:04;;;;;;;7.45;3.97;;;;;;;4.56;53.79;99250.66;4258173;33;32465;-85
2023/03/28 07:14:32;;;;;;;8.90;4.87;;;;;;;4.46;53.27;99256.25;4272299;33;34219;-86
2023/03/28 07:17:00;;;;;;;7.87;4.47;;;;;;;4.53;53.69;99252.22;4258703;33;33232;-85
2023/03/28 07:19:27;;;;;;;7.10;3.50;;;;;;;4.43;53.31;99257.81;4266252;33;34143;-86
2023/03/28 07:21:55;;;;;;;6.00;3.50;;;;;;;4.04;53.29;99273.41;4274437;33;33864;-86
2023/03/28 07:24:23;;;;;;;6.12;3.60;;;;;;;4.00;54.05;99276.66;4271571;33;33436;-85
2023/03/28 07:26:52;;;;;;;5.35;3.00;;;;;;;3.86;54.51;99281.22;4270162;33;33756;-84
2023/03/28 07:29:38;;;;;;;;;;;;;;;3.75;53.84;99282.47;4260585;33;35051;-84
2023/03/28 07:32:06;;;;;;;7.87;3.00;;;;;;;3.51;54.49;99283.19;4258195;33;35047;-84
2023/03/28 07:34:33;;;;;;;6.07;2.60;;;;;;;4.00;53.26;99284.34;4261886;33;33009;-85
2023/03/28 07:37:01;;;;;;;5.97;2.90;;;;;;;3.99;54.19;99286.06;4258839;33;32541;-86
2023/03/28 07:39:33;;;;;;;10.50;2.97;;;;;;;3.63;54.24;99278.56;4257572;33;35529;-85
2023/03/28 07:42:02;;;;;;;6.10;3.05;;;;;;;3.79;53.58;99286.91;4244749;33;35235;-86
2023/03/28 07:44:30;;;;;;;7.22;3.17;;;;;;;3.36;54.81;99285.09;4257823;33;33060;-86
2023/03/28 07:46:58;;;;;;;9.48;2.75;;;;;;;3.68;54.05;99283.03;4251146;33;233452;-86
2023/03/28 07:49:26;;;;;;;8.63;3.25;;;;;;;4.06;53.21;99287.19;4257810;33;34187;-87
2023/03/28 07:51:54;;;;;;;6.20;2.70;;;;;;;3.93;53.77;99287.47;4259582;33;33747;-86
2023/03/28 07:54:23;;;;;;;4.03;2.40;;;;;;;4.11;54.69;99283.09;4266359;33;33402;-86
2023/03/28 07:56:50;;;;;;;4.68;2.62;;;;;;;4.30;53.04;99283.00;4271158;33;33742;-85
2023/03/28 07:59:18;;;;;;;7.00;3.28;;;;;;;4.16;53.77;99284.16;4260358;33;33923;-86
2023/03/28 08:01:48;;;;;;;5.10;2.67;;;;;;;4.77;51.74;99276.28;4260839;33;34530;-86
2023/03/28 08:04:17;;;;;;;6.15;2.72;;;;;;;5.09;52.03;99274.00;4259519;33;33478;-85
2023/03/28 08:06:47;;;;;;;6.78;2.87;;;;;;;4.98;51.19;99259.88;4253273;33;33038;-86
2023/03/28 08:09:15;;;;;;;8.13;2.97;;;;;;;5.00;52.04;99264.28;4246995;33;34909;-86
2023/03/28 08:11:44;;;;;;;6.18;3.05;;;;;;;4.93;51.79;99256.28;4263404;33;33566;-86
2023/03/28 08:14:13;;;;;;;6.30;2.65;;;;;;;5.01;51.70;99271.16;4253984;33;34210;-86
2023/03/28 08:16:41;;;;;;;5.40;2.53;;;;;;;5.28;50.37;99271.25;4259788;33;33959;-86
2023/03/28 08:19:10;;;;;;;6.50;2.70;;;;;;;4.90;51.70;99284.44;4259612;33;32506;-86
2023/03/28 08:21:39;;;;;;;6.70;2.67;;;;;;;4.75;51.70;99270.19;4273531;33;34797;-86
2023/03/28 08:24:09;;;;;;;5.50;2.10;;;;;;;4.67;51.97;99269.03;4272848;33;33535;-86
2023/03/28 08:26:42;;;;;;;4.75;2.10;;;;;;;4.82;49.72;99273.88;4261051;33;34599;-87
2023/03/28 08:29:10;;;;;;;5.87;2.30;;;;;;;4.41;50.50;99264.59;4273114;33;34609;-86
2023/03/28 08:31:38;;;;;;;5.40;2.33;;;;;;;5.01;49.92;99260.88;4256777;33;35661;-87
2023/03/28 08:34:06;;;;;;;6.57;2.20;;;;;;;4.97;50.20;99264.16;4246218;33;32657;-87
2023/03/28 08:36:34;;;;;;;6.90;2.25;;;;;;;5.45;48.74;99258.09;4259377;33;34585;-87
2023/03/28 08:39:03;;;;;;;7.20;2.08;;;;;;;5.74;48.69;99254.84;4258814;33;34022;-87
2023/03/28 08:41:43;;;;;;;4.87;1.92;;;;;;;5.96;48.77;99260.72;4259169;33;33921;-87
2023/03/28 08:44:17;;;;;;;7.25;2.08;;;;;;;6.04;47.23;99254.13;4258946;33;33589;-84
2023/03/28 08:46:47;;;;;;;5.43;2.47;;;;;;;5.83;46.94;99261.97;4259405;33;33967;-87
2023/03/28 08:49:16;;;;;;;6.65;2.30;;;;;;;5.97;46.71;99260.78;4259236;33;34149;-85
2023/03/28 08:51:47;;;;;;;4.18;1.92;;;;;;;5.94;46.19;99246.91;4267580;33;34886;-87
2023/03/28 08:54:25;;;;;;;5.87;1.90;;;;;;;6.04;46.39;99242.12;4259653;33;33255;-85
2023/03/28 08:56:55;;;;;;;4.22;1.73;;;;;;;5.93;46.77;99237.47;4260058;33;33959;-87
2023/03/28 08:59:57;;;;;;;6.05;2.00;;;;;;;6.45;45.00;99234.81;4259615;33;34894;-85
2023/03/28 09:02:27;;;;;;;7.10;1.80;;;;;;;6.05;45.60;99241.28;4272541;33;33667;-86
2023/03/28 09:04:56;;;;;;;6.40;2.30;;;;;;;5.59;46.97;99246.59;4260111;33;33533;-83
2023/03/28 09:08:12;;;;;;;4.53;1.60;;;;;;;5.23;47.69;99252.25;4273010;33;34054;-86
2023/03/28 09:10:44;;;;;;;4.68;1.77;;;;;;;4.90;48.75;99253.59;4256616;33;33716;-87
2023/03/28 09:13:40;;;;;;;5.15;1.45;;;;;;;5.00;49.19;99247.97;4260244;33;34004;-86
2023/03/28 09:16:19;;;;;;;4.47;1.30;;;;;;;5.05;49.77;99249.03;4273158;33;32929;-86
2023/03/28 09:19:06;;;;;;;3.60;1.60;;;;;;;4.80;49.13;99255.81;4272914;33;33815;-86
2023/03/28 09:21:44;;;;;;;4.30;1.60;;;;;;;5.29;47.91;99251.56;4272473;33;33521;-87
2023/03/28 09:24:47;;;;;;;5.55;1.55;;;;;;;5.59;46.66;99257.75;4234368;33;33511;-86
2023/03/28 09:27:43;;;;;;;6.05;1.62;;;;;;;5.52;48.79;99249.78;4272863;33;34527;-86
2023/03/28 09:30:14;;;;;;;4.97;1.75;;;;;;;5.95;47.97;99267.59;4263284;33;33728;-86
2023/03/28 09:32:41;;;;;;;5.87;1.83;;;;;;;5.79;47.92;99265.28;4270452;33;34533;-85
2023/03/28 09:35:18;;;;;;;5.87;1.70;;;;;;;5.84;49.64;99300.63;4257826;33;33522;-87
2023/03/28 09:37:52;;;;;;;4.70;1.55;;;;;;;5.93;48.99;99296.66;4259626;33;33389;-87
2023/03/28 09:40:26;;;;;;;5.10;1.58;;;;;;;5.72;49.13;99295.09;4248348;33;33445;-87
2023/03/28 09:43:09;;;;;;;3.33;1.50;;;;;;;5.91;49.13;99288.84;4260543;33;32086;-86
2023/03/28 09:45:57;;;;;;;3.95;1.80;;;;;;;6.01;50.32;99293.50;4259520;33;34198;-84
2023/03/28 09:48:29;;;;;;;5.00;1.95;;;;;;;5.88;50.90;99285.31;4260265;33;32008;-85
2023/03/28 09:50:59;;;;;;;6.05;2.10;;;;;;;5.92;51.78;99277.75;4246104;33;33631;-88
2023/03/28 09:53:33;;;;;;;5.45;1.90;;;;;;;5.88;51.51;99263.03;4250856;33;34065;-86
2023/03/28 09:56:12;;;;;;;5.30;2.00;;;;;;;5.89;51.09;99267.34;4245724;33;32567;-87
2023/03/28 09:58:50;;;;;;;5.30;1.90;;;;;;;6.05;51.13;99253.28;4234620;33;33794;-86
2023/03/28 10:01:35;;;;;;;8.52;2.12;;;;;;;6.13;50.90;99267.28;4234515;33;33855;-86
2023/03/28 10:04:13;;;;;;;6.85;2.12;;;;;;;6.39;48.45;99259.50;4258703;33;34087;-87
2023/03/28 10:06:45;;;;;;;7.30;2.40;;;;;;;6.06;48.40;99252.47;4259588;33;33945;-85
2023/03/28 10:09:22;;;;;;;4.25;1.80;;;;;;;5.95;45.90;99243.56;4245992;33;34247;-86
2023/03/28 10:11:58;;;;;;;5.62;2.60;;;;;;;5.83;46.26;99257.72;4258209;33;34558;-85
2023/03/28 10:14:37;;;;;;;3.47;1.90;;;;;;;6.10;44.82;99259.47;4245983;33;34586;-84
2023/03/28 10:17:16;;;;;;;4.87;1.67;;;;;;;6.36;43.06;99233.66;4259505;33;33774;-87
2023/03/28 10:19:45;;;;;;;5.05;1.30;;;;;;;6.62;43.34;99225.00;4243349;33;33956;-85
2023/03/28 10:22:19;;;;;;;5.03;1.42;;;;;;;7.00;41.42;99235.53;4245634;33;33642;-87
2023/03/28 10:24:48;;;;;;;2.20;1.05;;;;;;;6.72;40.14;99245.06;4258418;33;33504;-87
2023/03/28 10:27:30;;;;;;;2.35;1.10;;;;;;;6.60;40.12;99239.56;4245159;33;33664;-86
2023/03/28 10:30:28;;;;;;;3.37;1.35;;;;;;;7.15;40.04;99246.28;4245372;33;33539;-86
2023/03/28 10:33:21;;;;;;;3.05;1.40;;;;;;;6.67;40.52;99241.50;4258057;33;34750;-87
2023/03/28 10:35:55;;;;;;;2.37;1.20;;;;;;;6.51;39.49;99250.44;4244854;33;34366;-85
2023/03/28 10:38:25;;;;;;;2.65;1.10;;;;;;;6.51;37.40;99254.72;4253505;33;34614;-86
2023/03/28 10:41:00;;;;;;;3.80;1.10;;;;;;;6.46;37.72;99246.84;4257979;33;33429;-86
2023/03/28 10:43:40;;;;;;;4.03;1.23;;;;;;;6.16;38.68;99258.78;4245557;33;34377;-83
2023/03/28 10:46:31;;;;;;;6.72;1.70;;;;;;;5.83;40.71;99256.81;4245070;33;34845;-87
2023/03/28 10:49:07;;;;;;;3.65;1.85;;;;;;;5.57;45.98;99261.13;4232190;33;34553;-87
2023/03/28 10:51:37;;;;;;;3.83;1.80;;;;;;;6.22;47.38;99256.41;4257907;33;32602;-87
2023/03/28 10:54:49;;;;;;;6.93;1.95;;;;;;;6.61;47.66;99243.88;4244816;33;33728;-88
2023/03/28 10:57:37;;;;;;;5.28;2.10;;;;;;;6.40;49.42;99261.25;4201609;34;34108;-86
2023/03/28 11:00:08;;;;;;;4.30;1.83;;;;;;;7.01;48.61;99245.91;4213149;34;34543;-86
2023/03/28 11:03:14;;;;;;;3.65;1.60;;;;;;;7.28;46.09;99247.50;4231845;33;33378;-86
2023/03/28 11:06:07;;;;;;;4.65;1.85;;;;;;;7.41;45.51;99253.84;4245344;33;34096;-87
2023/03/28 11:08:45;;;;;;;4.15;1.45;;;;;;;7.65;44.55;99243.28;4257908;33;34034;-86
2023/03/28 11:11:41;;;;;;;2.87;1.40;;;;;;;7.83;41.23;99248.91;4244958;33;34118;-85
2023/03/28 11:14:33;;;;;;;3.10;1.53;;;;;;;7.83;38.34;99240.31;4257871;33;33565;-86
2023/03/28 11:17:27;;;;;;;3.42;1.33;;;;;;;7.49;40.05;99247.19;4258290;33;34928;-93
2023/03/28 11:20:16;;;;;;;3.20;1.30;;;;;;;6.83;40.87;99237.66;4254463;33;34829;-86
2023/03/28 11:23:09;;;;;;;4.85;1.73;;;;;;;6.93;39.04;99242.25;4267529;33;34658;-85
2023/03/28 11:26:03;;;;;;;2.45;1.30;;;;;;;7.19;39.65;99237.78;4252446;33;33407;-83
2023/03/28 11:28:53;;;;;;;2.75;1.27;;;;;;;7.40;40.88;99242.66;4259781;33;32706;-87
2023/03/28 11:31:26;;;;;;;4.22;1.40;;;;;;;7.44;41.20;99259.97;4259593;33;34977;-86
2023/03/28 11:33:57;;;;;;;4.45;1.50;;;;;;;7.35;41.02;99256.25;4247079;33;34642;-86
2023/03/28 11:36:52;;;;;;;4.75;1.70;;;;;;;7.02;40.10;99251.94;4246691;33;33571;-87
2023/03/28 11:39:33;;;;;;;4.50;1.80;;;;;;;6.37;41.30;99259.47;4260172;33;34015;-85
2023/03/28 11:42:05;;;;;;;4.70;1.70;;;;;;;6.09;42.99;99262.84;4246753;33;34963;-86
2023/03/28 11:44:36;;;;;;;2.80;1.60;;;;;;;6.07;42.94;99261.94;4252255;33;34063;-86
2023/03/28 11:47:11;;;;;;;4.15;1.70;;;;;;;6.43;41.95;99261.34;4246500;33;33603;-87
2023/03/28 11:49:49;;;;;;;5.80;1.75;;;;;;;6.82;43.56;99257.41;4247228;33;34636;-86
2023/03/28 11:52:27;;;;;;;7.03;2.65;;;;;;;6.83;44.41;99258.25;4246944;33;34170;-86
2023/03/28 11:55:14;;;;;;;2.85;1.42;;;;;;;7.18;42.67;99248.94;4246874;33;33498;-86
2023/03/28 11:57:48;;;;;;;5.12;2.05;;;;;;;7.09;41.09;99248.69;4235411;33;33449;-86
2023/03/28 12:00:27;;;;;;;4.05;1.55;;;;;;;6.68;40.98;99232.91;4259439;33;34076;-86
2023/03/28 12:03:27;;;;;;;3.47;1.48;;;;;;;7.04;38.80;99255.41;4262528;33;34981;-87
2023/03/28 12:06:42;;;;;;;3.25;1.50;;;;;;;7.61;36.02;99249.19;4273531;33;34057;-81
2023/03/28 12:09:43;;;;;;;2.20;1.20;;;;;;;7.40;36.96;99241.78;4199084;33;33613;-81
2023/03/28 12:12:15;;;;;;;3.55;1.50;;;;;;;7.71;38.80;99241.75;4246197;33;33268;-86
2023/03/28 12:15:04;;;;;;;4.05;1.65;;;;;;;7.95;36.52;99230.28;4247040;33;34287;-86